createdAt,value
2023-01-27T00:04:08.970Z,30.80
2023-01-27T00:09:14.711Z,43.27
2023-01-27T00:14:20.110Z,42.17
2023-01-27T00:19:27.230Z,34.83
2023-01-27T00:24:38.794Z,38.80
2023-01-27T00:29:44.213Z,32.83
2023-01-27T00:34:49.953Z,37.73
2023-01-27T00:39:55.555Z,31.40
2023-01-27T00:45:18.797Z,30.50
2023-01-27T00:50:24.356Z,26.93
2023-01-27T00:55:30.753Z,28.47
2023-01-27T01:00:37.185Z,23.87
2023-01-27T01:05:42.939Z,23.07
2023-01-27T01:10:48.581Z,24.20
2023-01-27T01:15:54.070Z,19.07
2023-01-27T01:20:59.574Z,16.33
2023-01-27T01:26:06.058Z,17.30
2023-01-27T01:31:14.491Z,15.17
2023-01-27T01:36:21.770Z,15.17
2023-01-27T01:41:27.497Z,10.37
2023-01-27T01:46:32.960Z,10.33
2023-01-27T01:51:42.699Z,9.73
2023-01-27T01:57:00.865Z,12.23
2023-01-27T02:02:09.391Z,9.80
2023-01-27T02:07:38.918Z,8.80
2023-01-27T02:12:44.349Z,11.60
2023-01-27T02:17:50.613Z,12.20
2023-01-27T02:23:32.497Z,16.07
2023-01-27T02:28:38.052Z,10.40
2023-01-27T02:33:44.042Z,12.00
2023-01-27T02:38:53.672Z,12.90
2023-01-27T02:44:00.193Z,13.47
2023-01-27T02:49:06.496Z,17.07
2023-01-27T02:54:12.915Z,22.20
2023-01-27T02:59:19.953Z,26.97
2023-01-27T03:04:25.569Z,25.07
2023-01-27T03:09:31.011Z,33.47
2023-01-27T03:14:55.819Z,30.93
2023-01-27T03:20:01.471Z,40.10
2023-01-27T03:25:08.905Z,38.67
2023-01-27T03:30:14.814Z,33.83
2023-01-27T03:35:23.511Z,43.17
2023-01-27T03:40:47.442Z,28.10
2023-01-27T03:46:11.023Z,39.70
2023-01-27T03:51:17.225Z,34.00
2023-01-27T03:56:24.253Z,27.23
2023-01-27T04:01:29.729Z,28.23
2023-01-27T04:06:56.163Z,28.43
2023-01-27T04:12:04.623Z,20.90
2023-01-27T04:17:13.218Z,19.03
2023-01-27T04:22:18.956Z,22.50
2023-01-27T04:27:24.453Z,16.93
2023-01-27T04:32:30.869Z,13.43
2023-01-27T04:37:36.515Z,16.83
2023-01-27T04:42:41.977Z,14.03
2023-01-27T04:47:47.451Z,12.03
2023-01-27T04:52:52.905Z,9.87
2023-01-27T04:57:58.319Z,13.47
2023-01-27T05:03:05.341Z,12.73
2023-01-27T05:08:11.878Z,12.07
2023-01-27T05:13:17.336Z,12.27
2023-01-27T05:18:22.791Z,10.27
2023-01-27T05:23:37.248Z,13.00
2023-01-27T05:28:45.434Z,12.33
2023-01-27T05:33:53.753Z,8.97
2023-01-27T05:39:00.535Z,13.63
2023-01-27T05:44:06.728Z,9.20
2023-01-27T05:49:12.605Z,11.73
2023-01-27T05:54:18.054Z,11.50
2023-01-27T05:59:24.415Z,8.90
2023-01-27T06:04:30.387Z,9.93
2023-01-27T06:09:38.141Z,7.80
2023-01-27T06:14:43.593Z,6.53
2023-01-27T06:19:48.974Z,5.30
2023-01-27T06:24:54.580Z,4.67
2023-01-27T06:30:00.131Z,5.43
2023-01-27T06:35:06.672Z,5.70
2023-01-27T06:40:13.517Z,5.47
2023-01-27T06:45:19.358Z,4.47
2023-01-27T06:50:26.348Z,4.93
2023-01-27T06:55:32.379Z,4.33
2023-01-27T07:00:38.701Z,4.13
2023-01-27T07:05:44.794Z,5.67
2023-01-27T07:10:50.862Z,3.40
2023-01-27T07:15:57.290Z,4.03
2023-01-27T07:21:07.227Z,2.60
2023-01-27T07:26:24.582Z,3.10
2023-01-27T07:31:20.069Z,3.43
2023-01-27T07:36:25.698Z,7.27
2023-01-27T07:41:31.444Z,2.50
2023-01-27T07:46:36.960Z,2.80
2023-01-27T07:51:42.370Z,1.27
2023-01-27T07:56:49.001Z,3.63
2023-01-27T08:01:54.526Z,3.97
2023-01-27T08:07:00.120Z,4.20
2023-01-27T08:12:05.608Z,4.60
2023-01-27T08:17:11.126Z,3.63
2023-01-27T08:22:18.219Z,3.47
2023-01-27T08:27:23.963Z,5.65
2023-01-27T08:32:29.478Z,4.43
2023-01-27T08:37:34.940Z,4.97
2023-01-27T08:42:40.399Z,6.37
2023-01-27T08:47:45.829Z,7.83
2023-01-27T08:52:51.347Z,5.93
2023-01-27T08:57:57.458Z,6.07
2023-01-27T09:03:02.919Z,5.27
2023-01-27T09:08:09.440Z,7.20
2023-01-27T09:13:17.122Z,5.20
2023-01-27T09:18:22.950Z,5.53
2023-01-27T09:23:28.330Z,3.77
2023-01-27T09:28:33.793Z,4.57
2023-01-27T09:33:39.258Z,1.97
2023-01-27T09:38:54.438Z,2.33
2023-01-27T09:44:02.888Z,2.27
2023-01-27T09:49:29.415Z,2.43
2023-01-27T09:54:54.729Z,2.33
2023-01-27T10:00:06.266Z,5.37
2023-01-27T10:05:38.479Z,5.70
2023-01-27T10:10:55.676Z,4.00
2023-01-27T10:16:21.494Z,2.27
2023-01-27T10:21:30.111Z,2.47
2023-01-27T10:26:53.724Z,4.47
2023-01-27T10:32:02.355Z,2.27
2023-01-27T10:37:12.667Z,3.40
2023-01-27T10:42:36.234Z,3.50
2023-01-27T10:47:53.572Z,3.50
2023-01-27T10:53:17.067Z,2.97
2023-01-27T10:58:25.658Z,2.23
2023-01-27T11:03:34.642Z,5.13
2023-01-27T11:08:43.546Z,2.47
2023-01-27T11:13:50.585Z,4.50
2023-01-27T11:18:59.269Z,4.23
2023-01-27T11:24:07.746Z,5.10
2023-01-27T11:29:39.079Z,2.97
2023-01-27T11:34:56.568Z,2.57
2023-01-27T11:40:03.384Z,5.07
2023-01-27T11:45:18.136Z,5.07
2023-01-27T11:50:25.603Z,2.80
2023-01-27T11:55:34.092Z,4.47
2023-01-27T12:00:45.409Z,1.87
2023-01-27T12:05:56.539Z,2.03
2023-01-27T12:11:19.703Z,3.23
2023-01-27T12:16:46.352Z,2.07
2023-01-27T12:21:55.289Z,2.40
2023-01-27T12:27:02.503Z,2.07
2023-01-27T12:32:19.845Z,3.43
2023-01-27T12:37:37.303Z,4.53
2023-01-27T12:42:53.958Z,1.50
2023-01-27T12:48:02.997Z,4.30
2023-01-27T12:53:17.092Z,3.97
2023-01-27T12:58:31.853Z,4.67
2023-01-27T13:03:43.192Z,5.03
2023-01-27T13:08:51.760Z,3.00
2023-01-27T13:13:59.317Z,3.83
2023-01-27T13:19:06.629Z,5.33
2023-01-27T13:24:15.161Z,3.93
2023-01-27T13:29:23.795Z,4.13
2023-01-27T13:34:57.935Z,5.60
2023-01-27T13:40:25.598Z,3.27
2023-01-27T13:45:46.051Z,1.17
2023-01-27T13:51:09.795Z,3.10
2023-01-27T13:56:42.363Z,3.92
2023-01-27T14:01:51.360Z,6.27
2023-01-27T14:07:02.878Z,3.13
2023-01-27T14:12:17.164Z,3.77
2023-01-27T14:17:50.050Z,1.87
2023-01-27T14:23:17.118Z,4.43
2023-01-27T14:28:48.424Z,2.30
2023-01-27T14:34:19.459Z,4.13
2023-01-27T14:39:43.786Z,7.87
2023-01-27T14:45:03.680Z,9.53
2023-01-27T14:50:25.132Z,5.47
2023-01-27T14:55:33.581Z,4.37
2023-01-27T15:01:12.430Z,9.20
2023-01-27T15:06:32.968Z,4.10
2023-01-27T15:12:10.028Z,4.13
2023-01-27T15:17:23.989Z,2.17
2023-01-27T15:23:09.065Z,5.60
2023-01-27T15:28:17.241Z,4.87
2023-01-27T15:33:48.922Z,5.43
2023-01-27T15:39:15.827Z,5.77
2023-01-27T15:44:42.155Z,3.10
2023-01-27T15:49:50.148Z,3.67
2023-01-27T15:54:58.508Z,2.93
2023-01-27T16:00:07.464Z,4.17
2023-01-27T16:05:28.206Z,5.03
2023-01-27T16:10:36.126Z,5.93
2023-01-27T16:15:42.065Z,6.97
2023-01-27T16:20:59.509Z,4.57
2023-01-27T16:26:15.131Z,6.93
2023-01-27T16:31:23.812Z,7.40
2023-01-27T16:36:34.820Z,6.07
2023-01-27T16:41:41.239Z,8.93
2023-01-27T16:46:56.880Z,6.93
2023-01-27T16:52:05.946Z,6.93
2023-01-27T16:57:23.896Z,6.47
2023-01-27T17:02:32.260Z,8.20
2023-01-27T17:07:37.695Z,9.67
2023-01-27T17:12:47.027Z,8.80
2023-01-27T17:17:53.329Z,8.20
2023-01-27T17:22:59.913Z,10.47
2023-01-27T17:28:08.432Z,10.03
2023-01-27T17:33:19.950Z,8.90
2023-01-27T17:38:28.007Z,14.83
2023-01-27T17:43:37.073Z,14.23
2023-01-27T17:48:54.770Z,19.27
2023-01-27T17:54:01.789Z,27.33
2023-01-27T17:59:10.287Z,18.57
2023-01-27T18:04:16.640Z,16.53
2023-01-27T18:09:27.371Z,13.40
2023-01-27T18:14:37.025Z,13.30
2023-01-27T18:19:46.220Z,10.67
2023-01-27T18:24:55.331Z,12.53
2023-01-27T18:30:04.691Z,11.63
2023-01-27T18:35:30.973Z,10.13
2023-01-27T18:40:37.946Z,11.17
2023-01-27T18:45:47.341Z,12.83
2023-01-27T18:50:52.742Z,14.73
2023-01-27T18:55:59.997Z,12.97
2023-01-27T19:01:08.557Z,15.63
2023-01-27T19:06:17.944Z,14.37
2023-01-27T19:11:23.398Z,16.97
2023-01-27T19:16:30.834Z,18.27
2023-01-27T19:21:36.531Z,20.03
2023-01-27T19:26:42.092Z,19.40
2023-01-27T19:31:47.729Z,17.87
2023-01-27T19:36:53.478Z,17.33
2023-01-27T19:42:00.403Z,15.80
2023-01-27T19:47:12.330Z,15.00
2023-01-27T19:52:17.856Z,13.57
2023-01-27T19:57:23.470Z,16.13
2023-01-27T20:02:28.893Z,11.97
2023-01-27T20:07:34.420Z,12.80
2023-01-27T20:12:39.893Z,8.70
2023-01-27T20:17:45.796Z,13.07
2023-01-27T20:22:51.976Z,7.13
2023-01-27T20:27:59.932Z,8.90
2023-01-27T20:33:06.096Z,9.53
2023-01-27T20:38:11.527Z,8.20
2023-01-27T20:43:29.819Z,7.90
2023-01-27T20:48:24.076Z,14.93
2023-01-27T20:53:33.032Z,13.53
2023-01-27T20:58:38.624Z,6.83
2023-01-27T21:03:44.827Z,9.50
2023-01-27T21:08:50.738Z,8.50
2023-01-27T21:13:56.339Z,7.07
2023-01-27T21:19:03.134Z,5.97
2023-01-27T21:24:09.505Z,5.53
2023-01-27T21:29:15.501Z,3.23
2023-01-27T21:34:21.975Z,3.13
2023-01-27T21:39:27.460Z,4.37
2023-01-27T21:44:50.700Z,2.60
2023-01-27T21:50:02.761Z,3.13
2023-01-27T21:55:11.383Z,4.63
2023-01-27T22:00:22.653Z,2.83
2023-01-27T22:05:31.198Z,2.63
2023-01-27T22:10:36.645Z,4.83
2023-01-27T22:15:42.097Z,4.40
2023-01-27T22:20:47.737Z,5.53
2023-01-27T22:25:53.931Z,4.83
2023-01-27T22:31:02.437Z,4.67
2023-01-27T22:36:08.683Z,5.30
2023-01-27T22:41:14.086Z,5.73
2023-01-27T22:46:19.526Z,7.80
2023-01-27T22:51:24.977Z,7.73
2023-01-27T22:56:30.580Z,7.13
2023-01-27T23:01:36.060Z,7.07
2023-01-27T23:06:41.590Z,7.53
2023-01-27T23:11:47.055Z,8.30
2023-01-27T23:16:53.177Z,8.40
2023-01-27T23:21:58.640Z,9.70
2023-01-27T23:27:04.051Z,7.57
2023-01-27T23:32:09.759Z,6.43
2023-01-27T23:37:15.367Z,5.73
2023-01-27T23:42:21.019Z,4.83
2023-01-27T23:47:26.563Z,4.93
2023-01-27T23:52:33.651Z,3.63
2023-01-27T23:57:39.270Z,2.30
